Time,TemperatureF,DewpointF,PressureIn,WindDirection,WindDirectionDegrees,WindSpeedMPH,WindSpeedGustMPH,Humidity,HourlyPrecipIn,Conditions,Clouds,dailyrainin,SoftwareType,DateUTC
2013-02-22 00:10:00,46.8,39.0,29.92,NNE,16,5.0,11.0,73,0.00,,,0.15,weatherlink.com 1.10,2013-02-22 06:10:00,
2013-02-22 00:25:00,45.9,38.0,29.92,NNE,16,3.0,8.0,74,0.00,,,0.15,weatherlink.com 1.10,2013-02-22 06:25:00,
2013-02-22 00:40:00,45.5,38.0,29.92,ENE,63,3.0,5.0,75,0.00,,,0.00,weatherlink.com 1.10,2013-02-22 06:40:00,
2013-02-22 00:55:00,44.9,38.0,29.93,NE,49,3.0,6.0,77,0.00,,,0.00,weatherlink.com 1.10,2013-02-22 06:55:00,
2013-02-22 01:24:00,43.9,38.0,29.94,ENE,76,1.0,12.0,81,0.00,,,0.00,weatherlink.com 1.10,2013-02-22 07:24:00,
2013-02-22 01:39:00,43.3,38.0,29.95,East,101,0.0,7.0,82,0.00,,,0.00,weatherlink.com 1.10,2013-02-22 07:39:00,
2013-02-22 01:55:00,42.8,38.0,29.95,ENE,59,3.0,6.0,83,0.00,,,0.00,weatherlink.com 1.10,2013-02-22 07:55:00,
2013-02-22 02:10:00,42.5,38.0,29.96,ENE,71,4.0,5.0,83,0.00,,,0.00,weatherlink.com 1.10,2013-02-22 08:10:00,
2013-02-22 02:24:00,41.9,37.0,29.96,NNE,19,2.0,3.0,84,0.00,,,0.00,weatherlink.com 1.10,2013-02-22 08:24:00,
2013-02-22 02:39:00,41.3,37.0,29.96,East,89,0.0,4.0,85,0.00,,,0.00,weatherlink.com 1.10,2013-02-22 08:39:00,
2013-02-22 02:55:00,40.7,37.0,29.97,NNE,15,0.0,2.0,86,0.00,,,0.00,weatherlink.com 1.10,2013-02-22 08:55:00,
2013-02-22 03:10:00,39.9,36.0,29.96,NNE,23,3.0,3.0,86,0.00,,,0.00,weatherlink.com 1.10,2013-02-22 09:10:00,
2013-02-22 03:25:00,39.6,36.0,29.96,NNE,23,3.0,6.0,86,0.00,,,0.00,weatherlink.com 1.10,2013-02-22 09:25:00,
2013-02-22 03:40:00,39.3,36.0,29.96,ENE,57,3.0,6.0,86,0.00,,,0.00,weatherlink.com 1.10,2013-02-22 09:40:00,
2013-02-22 04:10:00,38.9,35.0,30.00,NE,53,2.0,6.0,84,0.00,,,0.00,weatherlink.com 1.10,2013-02-22 10:10:00,
2013-02-22 04:25:00,38.6,35.0,30.02,North,8,0.0,4.0,85,0.00,,,0.00,weatherlink.com 1.10,2013-02-22 10:25:00,
2013-02-22 04:40:00,38.0,34.0,30.03,North,6,0.0,1.0,85,0.00,,,0.00,weatherlink.com 1.10,2013-02-22 10:40:00,
2013-02-22 04:55:00,37.5,34.0,30.04,North,356,2.0,3.0,86,0.00,,,0.00,weatherlink.com 1.10,2013-02-22 10:55:00,
2013-02-22 05:10:00,38.0,35.0,30.04,NNE,20,4.0,7.0,87,0.00,,,0.00,weatherlink.com 1.10,2013-02-22 11:10:00,
2013-02-22 05:25:00,38.1,34.0,30.05,North,1,5.0,8.0,84,0.00,,,0.00,weatherlink.com 1.10,2013-02-22 11:25:00,
2013-02-22 05:40:00,37.3,33.0,30.05,NNE,21,7.0,11.0,84,0.00,,,0.00,weatherlink.com 1.10,2013-02-22 11:40:00,
2013-02-22 05:55:00,36.5,32.0,30.05,NNE,30,6.0,10.0,85,0.00,,,0.00,weatherlink.com 1.10,2013-02-22 11:55:00,
2013-02-22 06:26:00,35.4,31.0,30.06,NNE,22,4.0,10.0,85,0.00,,,0.00,weatherlink.com 1.10,2013-02-22 12:26:00,
2013-02-22 06:41:00,35.1,31.0,30.08,NNE,16,0.0,7.0,85,0.00,,,0.00,weatherlink.com 1.10,2013-02-22 12:41:00,
2013-02-22 06:56:00,34.9,30.0,30.10,NNE,19,3.0,6.0,83,0.00,,,0.00,weatherlink.com 1.10,2013-02-22 12:56:00,
2013-02-22 07:11:00,34.6,30.0,30.11,NNE,31,4.0,8.0,83,0.00,,,0.00,weatherlink.com 1.10,2013-02-22 13:11:00,
2013-02-22 07:26:00,34.3,30.0,30.11,NNE,24,6.0,8.0,84,0.00,,,0.00,weatherlink.com 1.10,2013-02-22 13:26:00,
2013-02-22 07:40:00,34.3,30.0,30.12,North,8,8.0,9.0,84,0.00,,,0.00,weatherlink.com 1.10,2013-02-22 13:40:00,
2013-02-22 07:55:00,34.3,29.0,30.12,North,9,10.0,11.0,82,0.00,,,0.00,weatherlink.com 1.10,2013-02-22 13:55:00,
2013-02-22 08:10:00,34.3,28.0,30.12,NNE,15,6.0,11.0,78,0.00,,,0.00,weatherlink.com 1.10,2013-02-22 14:10:00,
2013-02-22 08:25:00,34.5,27.0,30.14,NNW,329,6.0,11.0,74,0.00,,,0.00,weatherlink.com 1.10,2013-02-22 14:25:00,
2013-02-22 08:41:00,34.8,27.0,30.14,NNE,25,8.0,11.0,74,0.00,,,0.00,weatherlink.com 1.10,2013-02-22 14:41:00,
2013-02-22 08:56:00,34.9,28.0,30.13,North,350,10.0,12.0,75,0.00,,,0.00,weatherlink.com 1.10,2013-02-22 14:56:00,
2013-02-22 09:11:00,35.3,27.0,30.12,NNE,30,9.0,13.0,73,0.00,,,0.00,weatherlink.com 1.10,2013-02-22 15:11:00,
2013-02-22 09:26:00,35.5,27.0,30.12,ENE,76,6.0,15.0,72,0.00,,,0.00,weatherlink.com 1.10,2013-02-22 15:26:00,
2013-02-22 09:41:00,36.4,27.0,30.12,North,352,7.0,14.0,68,0.00,,,0.00,weatherlink.com 1.10,2013-02-22 15:41:00,
2013-02-22 09:56:00,37.3,28.0,30.12,NNE,16,8.0,12.0,68,0.00,,,0.00,weatherlink.com 1.10,2013-02-22 15:56:00,
2013-02-22 10:11:00,38.5,28.0,30.12,NNE,25,5.0,12.0,66,0.00,,,0.00,weatherlink.com 1.10,2013-02-22 16:11:00,
2013-02-22 10:26:00,39.6,29.0,30.12,NNW,346,3.0,10.0,65,0.00,,,0.00,weatherlink.com 1.10,2013-02-22 16:26:00,
2013-02-22 10:41:00,40.3,29.0,30.12,North,11,6.0,11.0,64,0.00,,,0.00,weatherlink.com 1.10,2013-02-22 16:41:00,
2013-02-22 10:56:00,41.1,28.0,30.11,NNW,343,6.0,11.0,60,0.00,,,0.00,weatherlink.com 1.10,2013-02-22 16:56:00,
2013-02-22 11:11:00,41.9,29.0,30.11,North,9,9.0,12.0,60,0.00,,,0.00,weatherlink.com 1.10,2013-02-22 17:11:00,
2013-02-22 11:26:00,42.8,28.0,30.11,NE,34,9.0,13.0,56,0.00,,,0.00,weatherlink.com 1.10,2013-02-22 17:26:00,
2013-02-22 11:41:00,42.9,29.0,30.10,North,6,3.0,12.0,59,0.00,,,0.00,weatherlink.com 1.10,2013-02-22 17:41:00,
2013-02-22 11:56:00,42.2,28.0,30.10,NNE,13,5.0,13.0,57,0.00,,,0.00,weatherlink.com 1.10,2013-02-22 17:56:00,
2013-02-22 12:11:00,42.3,29.0,30.09,North,351,4.0,9.0,60,0.00,,,0.00,weatherlink.com 1.10,2013-02-22 18:11:00,
2013-02-22 12:26:00,44.2,30.0,30.09,NNE,32,5.0,9.0,58,0.00,,,0.00,weatherlink.com 1.10,2013-02-22 18:26:00,
2013-02-22 12:41:00,46.0,31.0,30.08,NNE,19,9.0,10.0,57,0.00,,,0.00,weatherlink.com 1.10,2013-02-22 18:41:00,
2013-02-22 12:56:00,46.8,32.0,30.07,NNW,347,5.0,13.0,56,0.00,,,0.00,weatherlink.com 1.10,2013-02-22 18:56:00,
2013-02-22 13:11:00,47.9,30.0,30.06,NE,54,4.0,11.0,51,0.00,,,0.00,weatherlink.com 1.10,2013-02-22 19:11:00,
2013-02-22 13:26:00,47.4,29.0,30.05,NNE,15,5.0,14.0,50,0.00,,,0.00,weatherlink.com 1.10,2013-02-22 19:26:00,
2013-02-22 13:44:00,47.8,31.0,30.04,NNE,18,10.0,12.0,52,0.00,,,0.00,weatherlink.com 1.10,2013-02-22 19:44:00,
2013-02-22 13:56:00,48.8,31.0,30.03,North,356,7.0,13.0,51,0.00,,,0.00,weatherlink.com 1.10,2013-02-22 19:56:00,
2013-02-22 14:11:00,48.8,30.0,30.02,NNE,18,11.0,11.0,48,0.00,,,0.00,weatherlink.com 1.10,2013-02-22 20:11:00,
2013-02-22 14:26:00,48.6,31.0,30.02,ENE,58,8.0,12.0,50,0.00,,,0.00,weatherlink.com 1.10,2013-02-22 20:26:00,
2013-02-22 14:41:00,48.7,30.0,30.02,NE,47,6.0,10.0,49,0.00,,,0.00,weatherlink.com 1.10,2013-02-22 20:41:00,
2013-02-22 14:56:00,48.3,31.0,30.01,ENE,68,2.0,11.0,51,0.00,,,0.00,weatherlink.com 1.10,2013-02-22 20:56:00,
2013-02-22 15:11:00,48.7,30.0,30.01,ENE,64,8.0,10.0,49,0.00,,,0.00,weatherlink.com 1.10,2013-02-22 21:11:00,
2013-02-22 15:26:00,48.6,29.0,30.02,ENE,60,1.0,11.0,47,0.00,,,0.00,weatherlink.com 1.10,2013-02-22 21:26:00,
2013-02-22 15:41:00,49.4,30.0,30.02,NNE,18,11.0,12.0,47,0.00,,,0.00,weatherlink.com 1.10,2013-02-22 21:41:00,
2013-02-22 15:56:00,48.3,30.0,30.02,NNE,30,4.0,10.0,50,0.00,,,0.00,weatherlink.com 1.10,2013-02-22 21:56:00,
2013-02-22 16:11:00,48.7,30.0,30.02,ENE,77,3.0,9.0,48,0.00,,,0.00,weatherlink.com 1.10,2013-02-22 22:11:00,
2013-02-22 16:26:00,48.0,29.0,30.02,ENE,63,6.0,8.0,49,0.00,,,0.00,weatherlink.com 1.10,2013-02-22 22:26:00,
2013-02-22 16:41:00,47.8,30.0,30.02,NE,52,3.0,7.0,50,0.00,,,0.00,weatherlink.com 1.10,2013-02-22 22:41:00,
2013-02-22 16:57:00,47.9,30.0,30.02,ESE,115,1.0,6.0,51,0.00,,,0.00,weatherlink.com 1.10,2013-02-22 22:57:00,
2013-02-22 17:12:00,47.6,31.0,30.02,ENE,77,1.0,7.0,52,0.00,,,0.00,weatherlink.com 1.10,2013-02-22 23:12:00,
2013-02-22 17:26:00,47.1,30.0,30.03,ENE,75,4.0,5.0,51,0.00,,,0.00,weatherlink.com 1.10,2013-02-22 23:26:00,
2013-02-22 17:41:00,46.5,30.0,30.03,East,81,2.0,4.0,52,0.00,,,0.00,weatherlink.com 1.10,2013-02-22 23:41:00,
2013-02-22 17:56:00,45.8,29.0,30.04,East,87,1.0,2.0,53,0.00,,,0.00,weatherlink.com 1.10,2013-02-22 23:56:00,
2013-02-22 18:12:00,45.0,30.0,30.05,East,93,0.0,2.0,56,0.00,,,0.00,weatherlink.com 1.10,2013-02-23 00:12:00,
2013-02-22 18:27:00,44.1,30.0,30.05,North,9,1.0,1.0,57,0.00,,,0.00,weatherlink.com 1.10,2013-02-23 00:27:00,
2013-02-22 18:41:00,43.2,30.0,30.06,North,6,1.0,2.0,61,0.00,,,0.00,weatherlink.com 1.10,2013-02-23 00:41:00,
2013-02-22 18:56:00,42.4,31.0,30.06,NNE,26,1.0,3.0,64,0.00,,,0.00,weatherlink.com 1.10,2013-02-23 00:56:00,
2013-02-22 19:11:00,42.1,30.0,30.06,North,354,5.0,8.0,62,0.00,,,0.00,weatherlink.com 1.10,2013-02-23 01:11:00,
2013-02-22 19:26:00,42.6,30.0,30.06,NNE,26,5.0,7.0,61,0.00,,,0.00,weatherlink.com 1.10,2013-02-23 01:26:00,
2013-02-22 19:41:00,42.8,30.0,30.08,NE,34,5.0,9.0,60,0.00,,,0.00,weatherlink.com 1.10,2013-02-23 01:41:00,
2013-02-22 19:56:00,42.5,30.0,30.09,North,1,8.0,8.0,61,0.00,,,0.00,weatherlink.com 1.10,2013-02-23 01:56:00,
2013-02-22 20:12:00,42.4,30.0,30.09,NNE,13,2.0,8.0,61,0.00,,,0.00,weatherlink.com 1.10,2013-02-23 02:12:00,
2013-02-22 20:27:00,42.2,29.0,30.10,North,359,5.0,7.0,61,0.00,,,0.00,weatherlink.com 1.10,2013-02-23 02:27:00,
2013-02-22 20:41:00,42.1,29.0,30.10,NNE,30,3.0,7.0,61,0.00,,,0.00,weatherlink.com 1.10,2013-02-23 02:41:00,
2013-02-22 20:56:00,42.1,29.0,30.11,NNE,32,2.0,8.0,61,0.00,,,0.00,weatherlink.com 1.10,2013-02-23 02:56:00,
2013-02-22 21:11:00,41.7,29.0,30.11,NNE,30,5.0,6.0,61,0.00,,,0.00,weatherlink.com 1.10,2013-02-23 03:11:00,
2013-02-22 21:26:00,41.6,29.0,30.11,North,356,3.0,6.0,61,0.00,,,0.00,weatherlink.com 1.10,2013-02-23 03:26:00,
2013-02-22 21:42:00,41.4,29.0,30.11,NNE,21,2.0,7.0,62,0.00,,,0.00,weatherlink.com 1.10,2013-02-23 03:42:00,
2013-02-22 21:56:00,41.1,29.0,30.11,NNE,15,2.0,6.0,62,0.00,,,0.00,weatherlink.com 1.10,2013-02-23 03:56:00,
2013-02-22 22:11:00,40.9,29.0,30.10,North,360,2.0,5.0,63,0.00,,,0.00,weatherlink.com 1.10,2013-02-23 04:11:00,
2013-02-22 22:27:00,40.6,29.0,30.10,NE,41,0.0,5.0,64,0.00,,,0.00,weatherlink.com 1.10,2013-02-23 04:27:00,
2013-02-22 22:41:00,40.4,29.0,30.09,East,80,4.0,4.0,63,0.00,,,0.00,weatherlink.com 1.10,2013-02-23 04:41:00,
2013-02-22 22:56:00,39.9,29.0,30.09,NNE,16,0.0,2.0,64,0.00,,,0.00,weatherlink.com 1.10,2013-02-23 04:56:00,
2013-02-22 23:11:00,39.4,29.0,30.09,North,1,2.0,3.0,66,0.00,,,0.00,weatherlink.com 1.10,2013-02-23 05:11:00,
2013-02-22 23:27:00,39.1,29.0,30.09,NNE,20,1.0,4.0,66,0.00,,,0.00,weatherlink.com 1.10,2013-02-23 05:27:00,
2013-02-22 23:41:00,39.3,29.0,30.09,NNE,25,3.0,7.0,66,0.00,,,0.00,weatherlink.com 1.10,2013-02-23 05:41:00,
2013-02-22 23:57:00,39.0,28.0,30.09,NNE,32,4.0,5.0,66,0.00,,,0.00,weatherlink.com 1.10,2013-02-23 05:57:00,